sensor_id;sensor_type;location;lat;lon;timestamp;pressure;altitude;pressure_sealevel;temperature;humidity
54144;BME280;40050;47.324;18.792;2023-02-25T00:01:55;987.25;;;11.31;63.90
54144;BME280;40050;47.324;18.792;2023-02-25T00:03:57;987.29;;;11.31;63.76
54144;BME280;40050;47.324;18.792;2023-02-25T00:05:59;987.26;;;11.30;63.74
54144;BME280;40050;47.324;18.792;2023-02-25T00:08:00;987.29;;;11.27;63.79
54144;BME280;40050;47.324;18.792;2023-02-25T00:10:01;987.22;;;11.23;63.77
54144;BME280;40050;47.324;18.792;2023-02-25T00:12:02;987.26;;;11.24;63.74
54144;BME280;40050;47.324;18.792;2023-02-25T00:14:03;987.22;;;11.15;63.94
54144;BME280;40050;47.324;18.792;2023-02-25T00:16:04;987.26;;;11.16;63.89
54144;BME280;40050;47.324;18.792;2023-02-25T00:18:06;987.19;;;11.14;64.01
54144;BME280;40050;47.324;18.792;2023-02-25T00:20:07;987.16;;;11.12;64.02
54144;BME280;40050;47.324;18.792;2023-02-25T00:22:08;987.12;;;11.10;64.07
54144;BME280;40050;47.324;18.792;2023-02-25T00:24:09;987.09;;;11.05;64.18
54144;BME280;40050;47.324;18.792;2023-02-25T00:26:10;987.08;;;11.05;64.20
54144;BME280;40050;47.324;18.792;2023-02-25T00:28:11;987.04;;;11.07;64.09
54144;BME280;40050;47.324;18.792;2023-02-25T00:30:12;987.03;;;11.05;64.11
54144;BME280;40050;47.324;18.792;2023-02-25T00:32:13;986.96;;;11.02;64.23
54144;BME280;40050;47.324;18.792;2023-02-25T00:34:14;986.85;;;11.01;64.07
54144;BME280;40050;47.324;18.792;2023-02-25T00:36:16;986.89;;;11.08;63.87
54144;BME280;40050;47.324;18.792;2023-02-25T00:38:18;986.83;;;11.06;63.86
54144;BME280;40050;47.324;18.792;2023-02-25T00:40:19;986.79;;;11.03;64.00
54144;BME280;40050;47.324;18.792;2023-02-25T00:42:20;986.76;;;11.05;63.88
54144;BME280;40050;47.324;18.792;2023-02-25T00:44:20;986.65;;;11.02;63.91
54144;BME280;40050;47.324;18.792;2023-02-25T00:46:21;986.70;;;11.06;63.84
54144;BME280;40050;47.324;18.792;2023-02-25T00:48:23;986.57;;;11.06;63.80
54144;BME280;40050;47.324;18.792;2023-02-25T00:50:24;986.54;;;11.06;63.79
54144;BME280;40050;47.324;18.792;2023-02-25T00:52:26;986.43;;;11.02;63.85
54144;BME280;40050;47.324;18.792;2023-02-25T00:54:27;986.46;;;10.97;64.03
54144;BME280;40050;47.324;18.792;2023-02-25T00:56:28;986.42;;;11.02;63.86
54144;BME280;40050;47.324;18.792;2023-02-25T00:58:29;986.38;;;11.01;63.80
54144;BME280;40050;47.324;18.792;2023-02-25T01:00:30;986.40;;;11.06;63.72
54144;BME280;40050;47.324;18.792;2023-02-25T01:02:31;986.37;;;11.07;63.62
54144;BME280;40050;47.324;18.792;2023-02-25T01:04:32;986.37;;;11.06;63.68
54144;BME280;40050;47.324;18.792;2023-02-25T01:06:33;986.29;;;11.06;63.59
54144;BME280;40050;47.324;18.792;2023-02-25T01:08:35;986.27;;;11.06;63.54
54144;BME280;40050;47.324;18.792;2023-02-25T01:10:36;986.22;;;11.05;63.59
54144;BME280;40050;47.324;18.792;2023-02-25T01:12:37;986.17;;;11.04;63.63
54144;BME280;40050;47.324;18.792;2023-02-25T01:14:38;986.14;;;10.96;63.84
54144;BME280;40050;47.324;18.792;2023-02-25T01:16:39;986.11;;;10.94;63.91
54144;BME280;40050;47.324;18.792;2023-02-25T01:18:40;986.02;;;11.01;63.67
54144;BME280;40050;47.324;18.792;2023-02-25T01:20:41;986.03;;;10.95;63.72
54144;BME280;40050;47.324;18.792;2023-02-25T01:22:41;986.00;;;10.95;63.74
54144;BME280;40050;47.324;18.792;2023-02-25T01:24:43;985.91;;;10.87;64.03
54144;BME280;40050;47.324;18.792;2023-02-25T01:26:44;985.86;;;10.87;63.95
54144;BME280;40050;47.324;18.792;2023-02-25T01:28:45;985.80;;;10.86;64.07
54144;BME280;40050;47.324;18.792;2023-02-25T01:30:46;985.75;;;10.84;64.09
54144;BME280;40050;47.324;18.792;2023-02-25T01:32:47;985.73;;;10.86;64.02
54144;BME280;40050;47.324;18.792;2023-02-25T01:34:48;985.73;;;10.82;64.20
54144;BME280;40050;47.324;18.792;2023-02-25T01:36:49;985.69;;;10.84;64.05
54144;BME280;40050;47.324;18.792;2023-02-25T01:38:50;985.65;;;10.78;64.25
54144;BME280;40050;47.324;18.792;2023-02-25T01:40:56;985.61;;;10.71;64.38
54144;BME280;40050;47.324;18.792;2023-02-25T01:42:57;985.59;;;10.61;64.69
54144;BME280;40050;47.324;18.792;2023-02-25T01:47:23;985.55;;;10.62;64.45
54144;BME280;40050;47.324;18.792;2023-02-25T01:49:25;985.55;;;10.59;64.56
54144;BME280;40050;47.324;18.792;2023-02-25T01:51:26;985.55;;;10.60;64.54
54144;BME280;40050;47.324;18.792;2023-02-25T01:53:36;985.53;;;10.63;64.55
54144;BME280;40050;47.324;18.792;2023-02-25T01:55:37;985.52;;;10.59;64.49
54144;BME280;40050;47.324;18.792;2023-02-25T01:57:39;985.42;;;10.47;64.64
54144;BME280;40050;47.324;18.792;2023-02-25T01:59:40;985.46;;;10.54;64.48
54144;BME280;40050;47.324;18.792;2023-02-25T02:01:43;985.43;;;10.48;64.46
54144;BME280;40050;47.324;18.792;2023-02-25T02:03:44;985.40;;;10.41;64.62
54144;BME280;40050;47.324;18.792;2023-02-25T02:05:50;985.40;;;10.35;64.75
54144;BME280;40050;47.324;18.792;2023-02-25T02:07:53;985.32;;;10.34;64.69
54144;BME280;40050;47.324;18.792;2023-02-25T02:09:54;985.18;;;10.17;64.74
54144;BME280;40050;47.324;18.792;2023-02-25T02:11:56;985.30;;;10.21;64.57
54144;BME280;40050;47.324;18.792;2023-02-25T02:13:57;985.29;;;10.16;64.39
54144;BME280;40050;47.324;18.792;2023-02-25T02:16:15;985.26;;;10.08;64.23
54144;BME280;40050;47.324;18.792;2023-02-25T02:18:18;985.22;;;10.00;64.21
54144;BME280;40050;47.324;18.792;2023-02-25T02:20:23;985.24;;;9.91;64.23
54144;BME280;40050;47.324;18.792;2023-02-25T02:27:09;985.13;;;9.71;64.57
54144;BME280;40050;47.324;18.792;2023-02-25T02:29:17;985.07;;;9.68;64.80
54144;BME280;40050;47.324;18.792;2023-02-25T02:31:23;985.04;;;9.65;64.70
54144;BME280;40050;47.324;18.792;2023-02-25T02:38:16;984.84;;;9.41;65.00
54144;BME280;40050;47.324;18.792;2023-02-25T02:43:15;985.02;;;9.29;65.74
54144;BME280;40050;47.324;18.792;2023-02-25T02:47:16;984.97;;;9.17;66.13
54144;BME280;40050;47.324;18.792;2023-02-25T02:51:49;984.81;;;9.08;66.14
54144;BME280;40050;47.324;18.792;2023-02-25T02:53:52;984.95;;;9.09;66.29
54144;BME280;40050;47.324;18.792;2023-02-25T02:55:54;984.94;;;9.08;66.23
54144;BME280;40050;47.324;18.792;2023-02-25T02:57:57;984.99;;;9.04;66.65
54144;BME280;40050;47.324;18.792;2023-02-25T03:00:13;985.00;;;9.04;66.58
54144;BME280;40050;47.324;18.792;2023-02-25T03:02:16;985.07;;;9.05;66.64
54144;BME280;40050;47.324;18.792;2023-02-25T03:04:23;985.08;;;8.99;67.02
54144;BME280;40050;47.324;18.792;2023-02-25T03:06:26;985.20;;;9.02;66.95
54144;BME280;40050;47.324;18.792;2023-02-25T03:08:29;985.13;;;9.04;66.67
54144;BME280;40050;47.324;18.792;2023-02-25T03:10:32;985.13;;;9.04;66.73
54144;BME280;40050;47.324;18.792;2023-02-25T03:12:33;985.09;;;9.01;66.65
54144;BME280;40050;47.324;18.792;2023-02-25T03:14:37;985.09;;;9.01;66.57
54144;BME280;40050;47.324;18.792;2023-02-25T03:16:54;985.17;;;8.97;66.89
54144;BME280;40050;47.324;18.792;2023-02-25T03:18:58;985.15;;;8.89;67.29
54144;BME280;40050;47.324;18.792;2023-02-25T03:21:04;985.18;;;8.97;67.10
54144;BME280;40050;47.324;18.792;2023-02-25T03:23:09;985.13;;;8.84;67.61
54144;BME280;40050;47.324;18.792;2023-02-25T03:27:28;985.10;;;8.88;68.49
54144;BME280;40050;47.324;18.792;2023-02-25T03:29:30;985.12;;;8.98;68.65
54144;BME280;40050;47.324;18.792;2023-02-25T03:31:35;985.06;;;9.05;68.55
54144;BME280;40050;47.324;18.792;2023-02-25T03:33:40;985.06;;;9.15;68.50
54144;BME280;40050;47.324;18.792;2023-02-25T03:35:42;985.09;;;9.24;68.37
54144;BME280;40050;47.324;18.792;2023-02-25T03:37:45;985.11;;;9.31;68.35
54144;BME280;40050;47.324;18.792;2023-02-25T03:39:49;985.12;;;9.42;68.15
54144;BME280;40050;47.324;18.792;2023-02-25T03:41:53;985.09;;;9.48;68.08
54144;BME280;40050;47.324;18.792;2023-02-25T03:43:54;985.11;;;9.55;67.92
54144;BME280;40050;47.324;18.792;2023-02-25T03:45:56;985.12;;;9.57;67.84
54144;BME280;40050;47.324;18.792;2023-02-25T03:47:57;985.10;;;9.57;67.75
54144;BME280;40050;47.324;18.792;2023-02-25T03:49:59;985.12;;;9.63;67.61
54144;BME280;40050;47.324;18.792;2023-02-25T03:52:04;985.13;;;9.67;67.48
54144;BME280;40050;47.324;18.792;2023-02-25T03:54:05;985.09;;;9.73;67.44
54144;BME280;40050;47.324;18.792;2023-02-25T03:56:07;985.04;;;9.87;67.11
54144;BME280;40050;47.324;18.792;2023-02-25T03:58:09;984.95;;;9.81;67.13
54144;BME280;40050;47.324;18.792;2023-02-25T04:00:22;984.98;;;9.88;67.11
54144;BME280;40050;47.324;18.792;2023-02-25T04:02:23;984.97;;;9.93;66.99
54144;BME280;40050;47.324;18.792;2023-02-25T04:04:26;984.97;;;10.01;66.76
54144;BME280;40050;47.324;18.792;2023-02-25T04:06:27;985.00;;;10.05;66.59
54144;BME280;40050;47.324;18.792;2023-02-25T04:08:28;985.07;;;10.12;66.63
54144;BME280;40050;47.324;18.792;2023-02-25T04:10:29;985.14;;;10.20;66.40
54144;BME280;40050;47.324;18.792;2023-02-25T04:12:30;985.09;;;10.20;66.49
54144;BME280;40050;47.324;18.792;2023-02-25T04:14:31;985.07;;;10.22;66.45
54144;BME280;40050;47.324;18.792;2023-02-25T04:16:32;985.10;;;10.27;66.35
54144;BME280;40050;47.324;18.792;2023-02-25T04:18:33;985.09;;;10.35;66.17
54144;BME280;40050;47.324;18.792;2023-02-25T04:20:34;985.10;;;10.43;66.03
54144;BME280;40050;47.324;18.792;2023-02-25T04:22:35;985.09;;;10.42;65.85
54144;BME280;40050;47.324;18.792;2023-02-25T04:24:35;985.15;;;10.43;65.83
54144;BME280;40050;47.324;18.792;2023-02-25T04:26:36;985.12;;;10.48;65.68
54144;BME280;40050;47.324;18.792;2023-02-25T04:28:37;985.08;;;10.56;65.58
54144;BME280;40050;47.324;18.792;2023-02-25T04:30:38;985.11;;;10.53;65.54
54144;BME280;40050;47.324;18.792;2023-02-25T04:32:39;985.19;;;10.65;65.42
54144;BME280;40050;47.324;18.792;2023-02-25T04:34:40;985.21;;;10.66;65.26
54144;BME280;40050;47.324;18.792;2023-02-25T04:36:41;985.21;;;10.70;65.25
54144;BME280;40050;47.324;18.792;2023-02-25T04:38:42;985.26;;;10.76;65.12
54144;BME280;40050;47.324;18.792;2023-02-25T04:40:43;985.31;;;10.83;64.88
54144;BME280;40050;47.324;18.792;2023-02-25T04:42:44;985.36;;;10.84;64.99
54144;BME280;40050;47.324;18.792;2023-02-25T04:44:45;985.45;;;10.85;64.97
54144;BME280;40050;47.324;18.792;2023-02-25T04:46:46;985.47;;;10.89;64.87
54144;BME280;40050;47.324;18.792;2023-02-25T04:48:47;985.47;;;10.86;65.01
54144;BME280;40050;47.324;18.792;2023-02-25T04:50:48;985.56;;;10.91;64.99
54144;BME280;40050;47.324;18.792;2023-02-25T04:52:49;985.51;;;10.95;64.73
54144;BME280;40050;47.324;18.792;2023-02-25T04:54:50;985.67;;;10.98;64.68
54144;BME280;40050;47.324;18.792;2023-02-25T04:56:51;985.57;;;10.96;64.76
54144;BME280;40050;47.324;18.792;2023-02-25T04:58:51;985.73;;;10.98;64.63
54144;BME280;40050;47.324;18.792;2023-02-25T05:00:52;985.83;;;10.96;64.81
54144;BME280;40050;47.324;18.792;2023-02-25T05:02:53;985.77;;;10.95;64.91
54144;BME280;40050;47.324;18.792;2023-02-25T05:04:54;985.82;;;10.92;65.07
54144;BME280;40050;47.324;18.792;2023-02-25T05:06:55;985.83;;;10.89;65.28
54144;BME280;40050;47.324;18.792;2023-02-25T05:08:56;985.95;;;10.86;65.50
54144;BME280;40050;47.324;18.792;2023-02-25T05:10:57;986.02;;;10.84;65.66
54144;BME280;40050;47.324;18.792;2023-02-25T05:12:58;986.04;;;10.80;65.83
54144;BME280;40050;47.324;18.792;2023-02-25T05:14:59;986.09;;;10.83;65.82
54144;BME280;40050;47.324;18.792;2023-02-25T05:17:00;986.05;;;10.75;65.74
54144;BME280;40050;47.324;18.792;2023-02-25T05:19:01;986.17;;;10.80;65.55
54144;BME280;40050;47.324;18.792;2023-02-25T05:21:02;986.23;;;10.76;65.46
54144;BME280;40050;47.324;18.792;2023-02-25T05:23:03;986.25;;;10.77;65.35
54144;BME280;40050;47.324;18.792;2023-02-25T05:25:04;986.27;;;10.79;65.12
54144;BME280;40050;47.324;18.792;2023-02-25T05:27:05;986.28;;;10.78;65.07
54144;BME280;40050;47.324;18.792;2023-02-25T05:29:06;986.27;;;10.79;64.79
54144;BME280;40050;47.324;18.792;2023-02-25T05:31:08;986.24;;;10.69;64.63
54144;BME280;40050;47.324;18.792;2023-02-25T05:33:09;986.34;;;10.71;64.85
54144;BME280;40050;47.324;18.792;2023-02-25T05:35:10;986.40;;;10.71;64.88
54144;BME280;40050;47.324;18.792;2023-02-25T05:37:11;986.36;;;10.66;64.82
54144;BME280;40050;47.324;18.792;2023-02-25T05:39:12;986.35;;;10.63;64.89
54144;BME280;40050;47.324;18.792;2023-02-25T05:41:14;986.34;;;10.64;64.67
54144;BME280;40050;47.324;18.792;2023-02-25T05:43:15;986.48;;;10.60;64.38
54144;BME280;40050;47.324;18.792;2023-02-25T05:45:16;986.51;;;10.58;64.34
54144;BME280;40050;47.324;18.792;2023-02-25T05:47:16;986.52;;;10.59;64.26
54144;BME280;40050;47.324;18.792;2023-02-25T05:49:17;986.53;;;10.56;64.10
54144;BME280;40050;47.324;18.792;2023-02-25T05:51:19;986.56;;;10.57;63.96
54144;BME280;40050;47.324;18.792;2023-02-25T05:53:20;986.57;;;10.51;64.31
54144;BME280;40050;47.324;18.792;2023-02-25T05:55:21;986.64;;;10.49;63.94
54144;BME280;40050;47.324;18.792;2023-02-25T05:57:22;986.59;;;10.39;63.85
54144;BME280;40050;47.324;18.792;2023-02-25T05:59:23;986.69;;;10.41;63.76
54144;BME280;40050;47.324;18.792;2023-02-25T06:01:24;986.85;;;10.40;63.79
54144;BME280;40050;47.324;18.792;2023-02-25T06:03:25;986.77;;;10.36;63.47
54144;BME280;40050;47.324;18.792;2023-02-25T06:05:26;986.79;;;10.36;63.44
54144;BME280;40050;47.324;18.792;2023-02-25T06:07:28;986.79;;;10.33;63.36
54144;BME280;40050;47.324;18.792;2023-02-25T06:09:29;986.81;;;10.26;63.41
54144;BME280;40050;47.324;18.792;2023-02-25T06:11:30;986.89;;;10.16;63.76
54144;BME280;40050;47.324;18.792;2023-02-25T06:13:31;986.94;;;10.19;63.71
54144;BME280;40050;47.324;18.792;2023-02-25T06:15:32;986.92;;;10.20;63.64
54144;BME280;40050;47.324;18.792;2023-02-25T06:17:33;986.88;;;10.08;64.08
54144;BME280;40050;47.324;18.792;2023-02-25T06:19:34;986.89;;;10.09;64.00
54144;BME280;40050;47.324;18.792;2023-02-25T06:21:35;986.82;;;9.97;64.02
54144;BME280;40050;47.324;18.792;2023-02-25T06:23:37;986.97;;;10.03;64.27
54144;BME280;40050;47.324;18.792;2023-02-25T06:25:38;987.02;;;10.03;64.32
54144;BME280;40050;47.324;18.792;2023-02-25T06:27:39;986.99;;;9.98;64.69
54144;BME280;40050;47.324;18.792;2023-02-25T06:29:40;987.01;;;9.96;64.67
54144;BME280;40050;47.324;18.792;2023-02-25T06:31:41;987.05;;;9.94;65.15
54144;BME280;40050;47.324;18.792;2023-02-25T06:33:42;987.17;;;9.88;65.43
54144;BME280;40050;47.324;18.792;2023-02-25T06:35:43;987.19;;;9.87;65.53
54144;BME280;40050;47.324;18.792;2023-02-25T06:37:44;987.24;;;9.81;66.04
54144;BME280;40050;47.324;18.792;2023-02-25T06:39:45;987.25;;;9.79;66.05
54144;BME280;40050;47.324;18.792;2023-02-25T06:41:46;987.31;;;9.77;66.25
54144;BME280;40050;47.324;18.792;2023-02-25T06:43:47;987.43;;;9.75;66.15
54144;BME280;40050;47.324;18.792;2023-02-25T06:45:49;987.39;;;9.69;66.05
54144;BME280;40050;47.324;18.792;2023-02-25T06:47:52;987.39;;;9.62;65.80
54144;BME280;40050;47.324;18.792;2023-02-25T06:49:53;987.54;;;9.61;65.66
54144;BME280;40050;47.324;18.792;2023-02-25T06:51:54;987.62;;;9.58;65.67
54144;BME280;40050;47.324;18.792;2023-02-25T06:53:54;987.73;;;9.61;65.08
54144;BME280;40050;47.324;18.792;2023-02-25T06:55:57;987.81;;;9.58;64.84
54144;BME280;40050;47.324;18.792;2023-02-25T06:57:58;987.79;;;9.56;64.62
54144;BME280;40050;47.324;18.792;2023-02-25T06:59:58;987.79;;;9.57;64.43
54144;BME280;40050;47.324;18.792;2023-02-25T07:02:02;987.83;;;9.57;64.35
54144;BME280;40050;47.324;18.792;2023-02-25T07:04:03;987.68;;;9.49;63.84
54144;BME280;40050;47.324;18.792;2023-02-25T07:06:05;987.85;;;9.58;63.72
54144;BME280;40050;47.324;18.792;2023-02-25T07:08:06;987.87;;;9.54;63.40
54144;BME280;40050;47.324;18.792;2023-02-25T07:10:07;987.87;;;9.53;63.44
54144;BME280;40050;47.324;18.792;2023-02-25T07:12:09;987.96;;;9.53;63.41
54144;BME280;40050;47.324;18.792;2023-02-25T07:14:10;987.71;;;9.35;63.44
54144;BME280;40050;47.324;18.792;2023-02-25T07:16:11;987.93;;;9.51;63.56
54144;BME280;40050;47.324;18.792;2023-02-25T07:18:12;987.92;;;9.53;63.54
54144;BME280;40050;47.324;18.792;2023-02-25T07:20:13;987.89;;;9.47;63.98
54144;BME280;40050;47.324;18.792;2023-02-25T07:22:15;987.85;;;9.46;64.18
54144;BME280;40050;47.324;18.792;2023-02-25T07:24:16;987.85;;;9.42;64.17
54144;BME280;40050;47.324;18.792;2023-02-25T07:26:17;987.77;;;9.45;64.34
54144;BME280;40050;47.324;18.792;2023-02-25T07:28:18;987.88;;;9.47;63.95
54144;BME280;40050;47.324;18.792;2023-02-25T07:30:19;987.80;;;9.42;63.88
54144;BME280;40050;47.324;18.792;2023-02-25T07:32:22;987.73;;;9.34;63.59
54144;BME280;40050;47.324;18.792;2023-02-25T07:34:23;987.68;;;9.19;63.78
54144;BME280;40050;47.324;18.792;2023-02-25T07:36:24;987.71;;;9.12;63.83
54144;BME280;40050;47.324;18.792;2023-02-25T07:38:25;987.75;;;9.20;64.15
54144;BME280;40050;47.324;18.792;2023-02-25T07:40:26;987.80;;;9.29;64.10
54144;BME280;40050;47.324;18.792;2023-02-25T07:42:27;987.89;;;9.29;64.07
54144;BME280;40050;47.324;18.792;2023-02-25T07:44:28;987.94;;;9.23;64.25
54144;BME280;40050;47.324;18.792;2023-02-25T07:46:29;987.87;;;9.22;64.17
54144;BME280;40050;47.324;18.792;2023-02-25T07:48:30;987.96;;;9.24;63.63
54144;BME280;40050;47.324;18.792;2023-02-25T07:50:31;988.02;;;9.18;64.08
54144;BME280;40050;47.324;18.792;2023-02-25T07:52:32;988.08;;;9.15;64.09
54144;BME280;40050;47.324;18.792;2023-02-25T07:54:33;988.05;;;9.14;63.92
54144;BME280;40050;47.324;18.792;2023-02-25T07:56:34;988.10;;;9.13;63.93
54144;BME280;40050;47.324;18.792;2023-02-25T07:58:35;988.17;;;9.16;63.80
54144;BME280;40050;47.324;18.792;2023-02-25T08:00:37;988.15;;;9.21;63.60
54144;BME280;40050;47.324;18.792;2023-02-25T08:02:38;988.09;;;9.17;63.60
54144;BME280;40050;47.324;18.792;2023-02-25T08:04:39;988.13;;;9.17;63.39
54144;BME280;40050;47.324;18.792;2023-02-25T08:06:40;988.13;;;9.21;63.21
54144;BME280;40050;47.324;18.792;2023-02-25T08:08:41;988.13;;;9.18;63.25
54144;BME280;40050;47.324;18.792;2023-02-25T08:10:42;988.22;;;9.22;63.31
54144;BME280;40050;47.324;18.792;2023-02-25T08:12:43;988.27;;;9.25;63.41
54144;BME280;40050;47.324;18.792;2023-02-25T08:14:44;988.21;;;9.22;63.10
54144;BME280;40050;47.324;18.792;2023-02-25T08:16:45;988.35;;;9.29;63.04
54144;BME280;40050;47.324;18.792;2023-02-25T08:18:46;988.18;;;9.32;63.15
54144;BME280;40050;47.324;18.792;2023-02-25T08:20:47;988.21;;;9.30;63.04
54144;BME280;40050;47.324;18.792;2023-02-25T08:22:48;988.22;;;9.30;62.96
54144;BME280;40050;47.324;18.792;2023-02-25T08:24:50;988.23;;;9.31;62.91
54144;BME280;40050;47.324;18.792;2023-02-25T08:26:51;988.23;;;9.28;63.01
54144;BME280;40050;47.324;18.792;2023-02-25T08:28:52;988.24;;;9.25;63.18
54144;BME280;40050;47.324;18.792;2023-02-25T08:30:53;988.26;;;9.27;63.19
54144;BME280;40050;47.324;18.792;2023-02-25T08:32:54;988.36;;;9.28;63.31
54144;BME280;40050;47.324;18.792;2023-02-25T08:34:55;988.34;;;9.16;63.71
54144;BME280;40050;47.324;18.792;2023-02-25T08:36:55;988.30;;;9.18;63.57
54144;BME280;40050;47.324;18.792;2023-02-25T08:38:57;988.33;;;9.21;63.43
54144;BME280;40050;47.324;18.792;2023-02-25T08:40:59;988.38;;;9.21;63.35
54144;BME280;40050;47.324;18.792;2023-02-25T08:43:00;988.23;;;9.04;63.39
54144;BME280;40050;47.324;18.792;2023-02-25T08:45:01;988.30;;;9.13;63.66
54144;BME280;40050;47.324;18.792;2023-02-25T08:47:02;988.39;;;9.12;63.40
54144;BME280;40050;47.324;18.792;2023-02-25T08:49:03;988.48;;;9.14;63.23
54144;BME280;40050;47.324;18.792;2023-02-25T08:51:05;988.44;;;9.06;63.13
54144;BME280;40050;47.324;18.792;2023-02-25T08:53:06;988.43;;;9.09;63.03
54144;BME280;40050;47.324;18.792;2023-02-25T08:55:07;988.36;;;9.11;63.17
54144;BME280;40050;47.324;18.792;2023-02-25T08:57:08;988.31;;;9.10;63.22
54144;BME280;40050;47.324;18.792;2023-02-25T08:59:13;988.27;;;9.08;62.65
54144;BME280;40050;47.324;18.792;2023-02-25T09:01:15;988.28;;;9.07;62.61
54144;BME280;40050;47.324;18.792;2023-02-25T09:03:16;988.36;;;9.05;62.46
54144;BME280;40050;47.324;18.792;2023-02-25T09:05:17;988.39;;;9.07;62.58
54144;BME280;40050;47.324;18.792;2023-02-25T09:07:18;988.46;;;9.01;62.92
54144;BME280;40050;47.324;18.792;2023-02-25T09:09:20;988.52;;;9.00;63.00
54144;BME280;40050;47.324;18.792;2023-02-25T09:11:21;988.64;;;9.02;63.01
54144;BME280;40050;47.324;18.792;2023-02-25T09:13:22;988.66;;;9.05;62.87
54144;BME280;40050;47.324;18.792;2023-02-25T09:15:23;988.76;;;9.07;62.83
54144;BME280;40050;47.324;18.792;2023-02-25T09:17:24;988.59;;;9.08;62.56
54144;BME280;40050;47.324;18.792;2023-02-25T09:19:25;988.64;;;9.11;62.58
54144;BME280;40050;47.324;18.792;2023-02-25T09:21:26;988.48;;;9.10;62.04
54144;BME280;40050;47.324;18.792;2023-02-25T09:23:27;988.32;;;9.11;62.20
54144;BME280;40050;47.324;18.792;2023-02-25T09:25:28;988.33;;;9.13;62.09
54144;BME280;40050;47.324;18.792;2023-02-25T09:27:29;988.35;;;9.15;61.98
54144;BME280;40050;47.324;18.792;2023-02-25T09:29:30;988.34;;;9.13;62.23
54144;BME280;40050;47.324;18.792;2023-02-25T09:31:31;988.46;;;9.20;62.14
54144;BME280;40050;47.324;18.792;2023-02-25T09:33:33;988.36;;;9.23;61.97
54144;BME280;40050;47.324;18.792;2023-02-25T09:35:34;988.23;;;9.26;62.14
54144;BME280;40050;47.324;18.792;2023-02-25T09:37:35;988.18;;;9.26;62.13
54144;BME280;40050;47.324;18.792;2023-02-25T09:39:35;988.35;;;9.32;61.85
54144;BME280;40050;47.324;18.792;2023-02-25T09:41:39;988.49;;;9.34;61.75
54144;BME280;40050;47.324;18.792;2023-02-25T09:43:42;988.58;;;9.32;61.78
54144;BME280;40050;47.324;18.792;2023-02-25T09:45:44;988.62;;;9.31;61.56
54144;BME280;40050;47.324;18.792;2023-02-25T09:47:56;988.64;;;9.33;61.60
54144;BME280;40050;47.324;18.792;2023-02-25T09:50:02;988.53;;;9.42;61.14
54144;BME280;40050;47.324;18.792;2023-02-25T09:52:14;988.49;;;9.36;61.13
54144;BME280;40050;47.324;18.792;2023-02-25T09:54:21;988.36;;;9.43;61.20
54144;BME280;40050;47.324;18.792;2023-02-25T09:56:25;988.28;;;9.47;60.90
54144;BME280;40050;47.324;18.792;2023-02-25T09:58:30;988.41;;;9.54;60.69
54144;BME280;40050;47.324;18.792;2023-02-25T10:00:36;988.48;;;9.55;61.03
54144;BME280;40050;47.324;18.792;2023-02-25T10:02:55;988.63;;;9.66;61.01
54144;BME280;40050;47.324;18.792;2023-02-25T10:07:23;988.71;;;9.76;59.66
54144;BME280;40050;47.324;18.792;2023-02-25T10:09:29;988.80;;;9.76;59.91
54144;BME280;40050;47.324;18.792;2023-02-25T10:18:51;989.03;;;9.72;59.59
54144;BME280;40050;47.324;18.792;2023-02-25T10:25:13;988.75;;;9.79;58.06
54144;BME280;40050;47.324;18.792;2023-02-25T10:29:29;988.74;;;9.74;57.57
54144;BME280;40050;47.324;18.792;2023-02-25T10:31:34;988.79;;;9.74;57.24
54144;BME280;40050;47.324;18.792;2023-02-25T10:33:36;988.84;;;9.77;56.67
54144;BME280;40050;47.324;18.792;2023-02-25T10:35:37;988.84;;;9.78;56.72
54144;BME280;40050;47.324;18.792;2023-02-25T10:37:39;988.69;;;9.75;57.07
54144;BME280;40050;47.324;18.792;2023-02-25T10:39:40;988.70;;;9.84;56.31
54144;BME280;40050;47.324;18.792;2023-02-25T10:41:41;988.67;;;9.80;55.56
54144;BME280;40050;47.324;18.792;2023-02-25T10:43:42;988.65;;;9.79;55.73
54144;BME280;40050;47.324;18.792;2023-02-25T10:45:43;988.74;;;9.90;54.92
54144;BME280;40050;47.324;18.792;2023-02-25T10:47:46;988.61;;;9.81;55.26
54144;BME280;40050;47.324;18.792;2023-02-25T10:52:17;988.91;;;9.96;53.38
54144;BME280;40050;47.324;18.792;2023-02-25T10:54:18;988.82;;;10.12;53.23
54144;BME280;40050;47.324;18.792;2023-02-25T10:56:22;988.88;;;10.23;52.40
54144;BME280;40050;47.324;18.792;2023-02-25T11:01:03;988.66;;;10.30;49.51
54144;BME280;40050;47.324;18.792;2023-02-25T11:03:05;988.57;;;10.37;49.43
54144;BME280;40050;47.324;18.792;2023-02-25T11:05:10;988.63;;;10.32;48.06
54144;BME280;40050;47.324;18.792;2023-02-25T11:07:30;988.69;;;10.36;48.62
54144;BME280;40050;47.324;18.792;2023-02-25T11:09:32;988.47;;;10.39;48.33
54144;BME280;40050;47.324;18.792;2023-02-25T11:11:34;988.33;;;10.43;48.28
54144;BME280;40050;47.324;18.792;2023-02-25T11:13:35;988.25;;;10.36;46.98
54144;BME280;40050;47.324;18.792;2023-02-25T11:15:36;988.23;;;10.33;47.60
54144;BME280;40050;47.324;18.792;2023-02-25T11:17:48;988.45;;;10.40;47.83
54144;BME280;40050;47.324;18.792;2023-02-25T11:19:51;988.46;;;10.49;47.85
54144;BME280;40050;47.324;18.792;2023-02-25T11:21:59;988.46;;;10.60;48.11
54144;BME280;40050;47.324;18.792;2023-02-25T11:24:16;988.52;;;10.82;47.91
54144;BME280;40050;47.324;18.792;2023-02-25T11:26:32;988.43;;;11.07;47.96
54144;BME280;40050;47.324;18.792;2023-02-25T11:28:37;988.35;;;11.25;47.85
54144;BME280;40050;47.324;18.792;2023-02-25T11:30:46;988.33;;;11.49;47.86
54144;BME280;40050;47.324;18.792;2023-02-25T11:32:49;988.39;;;11.68;46.72
54144;BME280;40050;47.324;18.792;2023-02-25T11:34:54;988.34;;;11.69;46.39
54144;BME280;40050;47.324;18.792;2023-02-25T11:36:56;988.29;;;11.75;45.71
54144;BME280;40050;47.324;18.792;2023-02-25T11:39:17;988.42;;;11.77;45.05
54144;BME280;40050;47.324;18.792;2023-02-25T11:41:21;988.49;;;11.76;45.95
54144;BME280;40050;47.324;18.792;2023-02-25T11:43:23;988.50;;;11.82;45.88
54144;BME280;40050;47.324;18.792;2023-02-25T11:45:24;988.27;;;11.69;45.54